sim
Sign-in with your pilot id or email,
or register
Callsign
Passwort

Schedule Details

Flight Number: OEO3035
Departure: Hannover Langenhagen Airport (EDDV) at 06:55
Arrival: Munich Airport (EDDM) at 08:10

Weather Information
Getting current METAR information for EDDV 240850Z 25014KT 220V290 9999 SCT029 15/09 Q1004 NOSIG
Getting current METAR information for EDDM 240850Z 25008KT CAVOK 17/14 Q1011 NOSIG

Schedule Frequency

Route Map